KNUI

Webster Nolf Airport

St Inigoes, Maryland, USA
METAR KNUI 200053Z AUTO 00000KT 10SM CLR M01/M06 A3007 RMK AO2 SLP181 T10111061
Observed Flight Rules
Jan-20 @ 00:53 UTC (22 minutes ago) Visual Flight Rules
Wind Visibility Clouds
Calm 10 miles
  • Clear skies
Temperatures Readings
Current -1°C / 30°F
Dewpoint -6°C / 21°F
Humidity 69%
Altimeter 30.07" Hg
Pressure 1018.1 hPa
Elevation 7
METAR KNUI 200053Z AUTO 00000KT 10SM CLR M01/M06 A3007 RMK AO2 SLP181 T10111061
Observed Flight Rules
Jan-20 @ 00:53 UTC
(22 minutes ago)
VFR
Wind Visibility
Calm 10 miles
Clouds
  • Clear skies
Temperature Dewpoint
-1°C / 30°F -6°C / 21°F
Humidity Altimeter Pressure
69% 30.07" Hg 1018.1 hPa